createdAt,value
2022-10-08T00:02:15.130Z,18.14
2022-10-08T00:04:43.772Z,18.14
2022-10-08T00:07:12.015Z,18.14
2022-10-08T00:09:40.199Z,18.12
2022-10-08T00:12:08.593Z,18.12
2022-10-08T00:14:38.418Z,18.13
2022-10-08T00:17:06.618Z,18.13
2022-10-08T00:19:35.375Z,18.14
2022-10-08T00:22:03.474Z,18.16
2022-10-08T00:24:32.089Z,18.16
2022-10-08T00:27:00.526Z,18.16
2022-10-08T00:29:28.722Z,18.15
2022-10-08T00:31:58.511Z,18.14
2022-10-08T00:34:27.523Z,18.11
2022-10-08T00:36:56.827Z,18.10
2022-10-08T00:39:26.232Z,18.06
2022-10-08T00:41:57.204Z,18.02
2022-10-08T00:45:02.411Z,17.97
2022-10-08T00:47:46.232Z,17.93
2022-10-08T00:50:19.139Z,17.89
2022-10-08T00:52:51.202Z,17.86
2022-10-08T00:55:22.245Z,17.85
2022-10-08T00:57:52.252Z,17.85
2022-10-08T01:00:23.311Z,17.83
2022-10-08T01:02:53.320Z,17.79
2022-10-08T01:05:29.208Z,17.74
2022-10-08T01:08:05.349Z,17.67
2022-10-08T01:10:40.183Z,17.64
2022-10-08T01:13:20.662Z,17.64
2022-10-08T01:15:56.939Z,17.65
2022-10-08T01:18:34.801Z,17.71
2022-10-08T01:21:10.077Z,17.75
2022-10-08T01:23:53.159Z,17.77
2022-10-08T01:26:42.411Z,17.78
2022-10-08T01:29:18.274Z,17.80
2022-10-08T01:31:51.948Z,17.79
2022-10-08T01:34:26.843Z,17.77
2022-10-08T01:36:58.264Z,17.75
2022-10-08T01:39:30.649Z,17.74
2022-10-08T01:42:03.251Z,17.75
2022-10-08T01:44:38.873Z,17.79
2022-10-08T01:47:11.551Z,17.79
2022-10-08T01:49:45.482Z,17.76
2022-10-08T01:52:21.315Z,17.75
2022-10-08T01:54:52.666Z,17.74
2022-10-08T01:57:21.792Z,17.72
2022-10-08T01:59:56.415Z,17.73
2022-10-08T02:02:27.336Z,17.71
2022-10-08T02:04:57.357Z,17.72
2022-10-08T02:07:29.055Z,17.73
2022-10-08T02:10:06.535Z,17.79
2022-10-08T02:12:35.951Z,17.81
2022-10-08T02:15:08.190Z,17.78
2022-10-08T02:17:41.393Z,17.72
2022-10-08T02:20:18.569Z,17.71
2022-10-08T02:22:54.564Z,17.72
2022-10-08T02:25:30.337Z,17.74
2022-10-08T02:28:07.249Z,17.72
2022-10-08T02:30:42.005Z,17.70
2022-10-08T02:33:15.690Z,17.70
2022-10-08T02:35:49.235Z,17.70
2022-10-08T02:38:22.338Z,17.70
2022-10-08T02:40:54.070Z,17.67
2022-10-08T02:43:27.033Z,17.64
2022-10-08T02:46:01.375Z,17.65
2022-10-08T02:48:31.893Z,17.65
2022-10-08T02:51:06.315Z,17.67
2022-10-08T02:53:35.411Z,17.70
2022-10-08T02:56:14.743Z,17.70
2022-10-08T02:58:44.050Z,17.73
2022-10-08T03:01:19.103Z,17.75
2022-10-08T03:03:52.090Z,17.71
2022-10-08T03:06:21.279Z,17.69
2022-10-08T03:08:51.022Z,17.74
2022-10-08T03:11:19.387Z,17.77
2022-10-08T03:13:50.725Z,17.80
2022-10-08T03:16:23.577Z,17.73
2022-10-08T03:18:54.056Z,17.73
2022-10-08T03:21:22.836Z,17.73
2022-10-08T03:23:51.073Z,17.75
2022-10-08T03:26:19.516Z,17.73
2022-10-08T03:28:47.930Z,17.70
2022-10-08T03:31:16.361Z,17.69
2022-10-08T03:33:50.734Z,17.70
2022-10-08T03:36:19.294Z,17.73
2022-10-08T03:38:48.075Z,17.69
2022-10-08T03:41:17.210Z,17.70
2022-10-08T03:43:46.313Z,17.71
2022-10-08T03:46:16.240Z,17.70
2022-10-08T03:48:49.042Z,17.71
2022-10-08T03:51:19.136Z,17.71
2022-10-08T03:53:47.713Z,17.67
2022-10-08T03:56:18.243Z,17.63
2022-10-08T03:58:47.430Z,17.59
2022-10-08T04:01:17.188Z,17.56
2022-10-08T04:03:46.997Z,17.53
2022-10-08T04:06:15.875Z,17.50
2022-10-08T04:08:44.350Z,17.46
2022-10-08T04:11:15.509Z,17.42
2022-10-08T04:13:44.242Z,17.38
2022-10-08T04:16:15.025Z,17.35
2022-10-08T04:18:44.125Z,17.29
2022-10-08T04:21:15.905Z,17.24
2022-10-08T04:23:45.197Z,17.21
2022-10-08T04:26:15.416Z,17.17
2022-10-08T04:28:45.388Z,17.12
2022-10-08T04:31:17.341Z,17.12
2022-10-08T04:33:46.525Z,17.08
2022-10-08T04:36:17.557Z,17.06
2022-10-08T04:38:46.545Z,17.05
2022-10-08T04:41:17.190Z,17.05
2022-10-08T04:43:46.498Z,17.02
2022-10-08T04:46:16.239Z,17.05
2022-10-08T04:48:48.578Z,17.03
2022-10-08T04:51:19.951Z,17.03
2022-10-08T04:53:48.151Z,17.04
2022-10-08T04:56:19.269Z,17.01
2022-10-08T04:58:48.264Z,17.01
2022-10-08T05:01:18.862Z,17.00
2022-10-08T05:03:49.254Z,16.99
2022-10-08T05:06:20.779Z,17.01
2022-10-08T05:08:49.883Z,17.00
2022-10-08T05:11:19.279Z,16.99
2022-10-08T05:13:51.150Z,16.94
2022-10-08T05:16:19.987Z,16.92
2022-10-08T05:18:50.752Z,16.92
2022-10-08T05:21:21.950Z,16.93
2022-10-08T05:23:55.234Z,16.94
2022-10-08T05:26:41.533Z,16.91
2022-10-08T05:29:13.945Z,16.87
2022-10-08T05:31:42.068Z,16.86
2022-10-08T05:34:16.025Z,16.81
2022-10-08T05:36:45.805Z,16.78
2022-10-08T05:39:14.078Z,16.77
2022-10-08T05:41:42.885Z,16.80
2022-10-08T05:44:12.072Z,16.81
2022-10-08T05:46:41.048Z,16.82
2022-10-08T05:49:15.630Z,16.85
2022-10-08T05:51:45.424Z,16.82
2022-10-08T05:54:13.548Z,16.81
2022-10-08T05:56:41.678Z,16.90
2022-10-08T05:59:16.822Z,16.97
2022-10-08T06:01:45.510Z,16.93
2022-10-08T06:04:14.053Z,16.89
2022-10-08T06:06:44.938Z,17.03
2022-10-08T06:09:16.968Z,17.06
2022-10-08T06:11:45.629Z,17.14
2022-10-08T06:14:16.951Z,17.21
2022-10-08T06:16:45.131Z,17.18
2022-10-08T06:19:14.184Z,17.22
2022-10-08T06:21:42.395Z,17.31
2022-10-08T06:24:13.171Z,17.34
2022-10-08T06:26:44.437Z,17.32
2022-10-08T06:29:16.682Z,17.36
2022-10-08T06:31:46.035Z,17.26
2022-10-08T06:34:14.613Z,17.33
2022-10-08T06:36:42.743Z,17.43
2022-10-08T06:39:14.320Z,17.47
2022-10-08T06:41:43.824Z,17.46
2022-10-08T06:44:14.302Z,17.48
2022-10-08T06:46:42.754Z,17.53
2022-10-08T06:49:11.423Z,17.53
2022-10-08T06:51:39.916Z,17.59
2022-10-08T06:54:08.813Z,17.65
2022-10-08T06:56:37.504Z,17.72
2022-10-08T06:59:07.838Z,17.79
2022-10-08T07:01:36.748Z,17.86
2022-10-08T07:04:07.073Z,17.91
2022-10-08T07:06:35.856Z,17.92
2022-10-08T07:09:06.876Z,18.01
2022-10-08T07:11:35.361Z,18.07
2022-10-08T07:14:04.270Z,18.15
2022-10-08T07:16:33.933Z,18.24
2022-10-08T07:19:02.171Z,18.30
2022-10-08T07:21:31.462Z,18.38
2022-10-08T07:24:01.592Z,18.52
2022-10-08T07:26:32.440Z,18.62
2022-10-08T07:29:02.744Z,18.69
2022-10-08T07:31:34.308Z,18.76
2022-10-08T07:34:04.687Z,18.86
2022-10-08T07:36:33.324Z,19.00
2022-10-08T07:39:03.495Z,19.16
2022-10-08T07:41:32.768Z,19.30
2022-10-08T07:44:03.286Z,19.37
2022-10-08T07:46:35.704Z,19.42
2022-10-08T07:49:05.309Z,19.48
2022-10-08T07:51:35.434Z,19.62
2022-10-08T07:54:06.350Z,19.61
2022-10-08T07:56:36.260Z,19.71
2022-10-08T07:59:05.468Z,19.84
2022-10-08T08:01:36.033Z,19.93
2022-10-08T08:04:07.245Z,20.12
2022-10-08T08:06:40.489Z,20.31
2022-10-08T08:09:09.644Z,20.33
2022-10-08T08:11:39.662Z,20.49
2022-10-08T08:14:08.149Z,20.35
2022-10-08T08:16:38.055Z,20.62
2022-10-08T08:19:06.378Z,20.78
2022-10-08T08:21:36.709Z,21.00
2022-10-08T08:24:08.245Z,21.12
2022-10-08T08:26:38.905Z,21.15
2022-10-08T08:29:10.982Z,21.13
2022-10-08T08:31:43.424Z,21.43
2022-10-08T08:34:14.982Z,21.55
2022-10-08T08:36:45.656Z,21.60
2022-10-08T08:39:17.312Z,21.73
2022-10-08T08:42:00.491Z,21.73
2022-10-08T08:44:32.150Z,21.61
2022-10-08T08:47:13.669Z,21.71
2022-10-08T08:49:45.295Z,21.84
2022-10-08T08:52:16.441Z,21.58
2022-10-08T08:54:49.253Z,21.83
2022-10-08T08:57:32.655Z,22.06
2022-10-08T09:00:05.542Z,21.99
2022-10-08T09:02:39.468Z,21.97
2022-10-08T09:05:12.088Z,22.12
2022-10-08T09:07:45.432Z,21.94
2022-10-08T09:10:18.828Z,22.15
2022-10-08T09:12:49.236Z,22.08
2022-10-08T09:15:20.712Z,22.67
2022-10-08T09:17:53.199Z,22.51
2022-10-08T09:20:24.237Z,22.88
2022-10-08T09:22:54.048Z,22.71
2022-10-08T09:25:24.485Z,22.85
2022-10-08T09:27:55.418Z,23.07
2022-10-08T09:30:34.336Z,22.90
2022-10-08T09:33:17.463Z,22.64
2022-10-08T09:35:49.343Z,22.26
2022-10-08T09:38:26.226Z,22.32
2022-10-08T09:41:03.190Z,22.50
2022-10-08T09:43:31.981Z,22.13
2022-10-08T09:46:03.016Z,22.06
2022-10-08T09:48:32.948Z,21.96
2022-10-08T09:51:03.788Z,22.10
2022-10-08T09:53:41.555Z,22.02
2022-10-08T09:56:11.927Z,22.17
2022-10-08T09:58:50.528Z,22.04
2022-10-08T10:01:20.112Z,21.86
2022-10-08T10:03:56.484Z,21.49
2022-10-08T10:06:29.785Z,21.32
2022-10-08T10:09:03.132Z,21.64
2022-10-08T10:11:37.791Z,21.83
2022-10-08T10:14:15.331Z,21.74
2022-10-08T10:19:19.377Z,21.86
2022-10-08T10:21:53.596Z,21.83
2022-10-08T10:24:37.257Z,21.91
2022-10-08T10:27:10.627Z,21.87
2022-10-08T10:29:49.854Z,22.05
2022-10-08T10:32:23.734Z,22.07
2022-10-08T10:35:00.932Z,21.91
2022-10-08T10:37:37.010Z,22.20
2022-10-08T10:40:30.981Z,21.84
2022-10-08T10:43:15.122Z,21.85
2022-10-08T10:45:49.457Z,22.09
2022-10-08T10:48:17.813Z,22.01
2022-10-08T10:51:00.028Z,21.99
2022-10-08T10:53:37.322Z,21.96
2022-10-08T10:56:14.188Z,21.95
2022-10-08T10:59:01.794Z,22.18
2022-10-08T11:01:41.372Z,21.90
2022-10-08T11:04:17.826Z,22.21
2022-10-08T11:07:03.384Z,22.26
2022-10-08T11:09:46.840Z,22.21
2022-10-08T11:12:28.404Z,22.18
2022-10-08T11:15:06.544Z,22.11
2022-10-08T11:17:45.094Z,22.07
2022-10-08T11:20:29.700Z,21.80
2022-10-08T11:23:08.478Z,21.85
2022-10-08T11:25:56.026Z,21.76
2022-10-08T11:28:49.773Z,21.70
2022-10-08T11:31:28.767Z,21.77
2022-10-08T11:33:58.364Z,21.72
2022-10-08T11:36:34.171Z,21.85
2022-10-08T11:39:14.437Z,21.85
2022-10-08T11:41:49.254Z,21.94
2022-10-08T11:44:18.791Z,21.81
2022-10-08T11:46:47.052Z,22.04
2022-10-08T11:49:54.158Z,22.08
2022-10-08T11:52:22.716Z,22.09
2022-10-08T11:54:55.902Z,21.78
2022-10-08T12:00:39.691Z,22.25
2022-10-08T12:03:23.251Z,21.94
2022-10-08T12:05:53.571Z,22.30
2022-10-08T12:08:54.129Z,21.96
2022-10-08T12:11:48.486Z,21.90
2022-10-08T12:14:49.213Z,21.90
2022-10-08T12:17:18.179Z,21.51
2022-10-08T12:20:04.302Z,21.57
2022-10-08T12:23:01.211Z,21.48
2022-10-08T12:25:37.289Z,21.52
2022-10-08T12:28:43.001Z,21.42
2022-10-08T12:31:29.401Z,21.48
2022-10-08T12:34:13.077Z,21.63
2022-10-08T12:36:50.823Z,21.75
2022-10-08T12:39:29.932Z,22.04
2022-10-08T12:42:10.662Z,22.07
2022-10-08T12:44:51.411Z,22.16
2022-10-08T12:47:35.267Z,22.38
2022-10-08T12:50:16.782Z,22.24
2022-10-08T12:52:46.063Z,22.41
2022-10-08T12:55:18.720Z,21.89
2022-10-08T12:57:49.891Z,22.01
2022-10-08T13:00:23.862Z,22.11
2022-10-08T13:03:04.986Z,22.26
2022-10-08T13:05:35.363Z,22.50
2022-10-08T13:08:19.429Z,22.30
2022-10-08T13:10:47.707Z,22.22
2022-10-08T13:13:50.640Z,22.00
2022-10-08T13:16:21.910Z,22.05
2022-10-08T13:18:54.001Z,22.09
2022-10-08T13:21:37.322Z,22.16
2022-10-08T13:24:30.644Z,22.30
2022-10-08T13:26:58.871Z,22.23
2022-10-08T13:29:33.841Z,22.25
2022-10-08T13:32:05.981Z,22.31
2022-10-08T13:34:42.498Z,22.33
2022-10-08T13:37:14.736Z,22.33
2022-10-08T13:39:51.691Z,21.85
2022-10-08T13:42:22.555Z,22.25
2022-10-08T13:44:52.388Z,22.04
2022-10-08T13:47:22.639Z,22.19
2022-10-08T13:49:55.459Z,22.38
2022-10-08T13:52:25.782Z,22.53
2022-10-08T13:54:59.146Z,22.67
2022-10-08T13:57:27.569Z,22.60
2022-10-08T13:59:56.426Z,22.80
2022-10-08T14:02:24.676Z,23.01
2022-10-08T14:04:54.530Z,23.22
2022-10-08T14:07:26.219Z,23.29
2022-10-08T14:09:57.182Z,23.36
2022-10-08T14:12:30.034Z,23.26
2022-10-08T14:14:58.578Z,23.14
2022-10-08T14:17:26.821Z,23.15
2022-10-08T14:19:56.540Z,23.37
2022-10-08T14:22:25.504Z,22.98
2022-10-08T14:24:53.747Z,23.21
2022-10-08T14:27:21.963Z,23.20
2022-10-08T14:29:50.499Z,23.03
2022-10-08T14:32:18.781Z,22.80
2022-10-08T14:34:46.958Z,22.34
2022-10-08T14:37:16.942Z,22.64
2022-10-08T14:39:45.346Z,22.49
2022-10-08T14:42:13.531Z,22.47
2022-10-08T14:44:41.975Z,22.22
2022-10-08T14:47:10.175Z,22.02
2022-10-08T14:49:38.991Z,22.27
2022-10-08T14:52:07.591Z,22.03
2022-10-08T14:54:37.278Z,22.11
2022-10-08T14:57:05.540Z,22.12
2022-10-08T14:59:39.052Z,21.85
2022-10-08T15:02:10.726Z,21.90
2022-10-08T15:04:39.393Z,21.72
2022-10-08T15:07:07.622Z,21.88
2022-10-08T15:09:40.497Z,21.58
2022-10-08T15:12:09.451Z,21.55
2022-10-08T15:14:38.494Z,21.79
2022-10-08T15:17:06.887Z,21.70
2022-10-08T15:19:35.525Z,21.58
2022-10-08T15:22:03.810Z,21.64
2022-10-08T15:24:32.022Z,21.59
2022-10-08T15:27:01.948Z,21.52
2022-10-08T15:29:30.226Z,21.29
2022-10-08T15:31:58.437Z,20.97
2022-10-08T15:34:26.954Z,20.98
2022-10-08T15:36:55.952Z,20.95
2022-10-08T15:39:24.499Z,20.96
2022-10-08T15:41:54.330Z,20.89
2022-10-08T15:44:25.503Z,21.04
2022-10-08T15:46:59.785Z,21.09
2022-10-08T15:49:31.182Z,20.91
2022-10-08T15:52:00.380Z,20.72
2022-10-08T15:54:28.599Z,20.67
2022-10-08T15:56:56.952Z,20.52
2022-10-08T15:59:26.800Z,20.77
2022-10-08T16:01:55.121Z,20.43
2022-10-08T16:04:23.856Z,20.50
2022-10-08T16:06:52.367Z,20.50
2022-10-08T16:09:22.036Z,20.33
2022-10-08T16:11:51.751Z,20.23
2022-10-08T16:14:22.055Z,20.22
2022-10-08T16:16:52.872Z,20.23
2022-10-08T16:19:23.396Z,20.15
2022-10-08T16:21:53.880Z,20.15
2022-10-08T16:24:22.370Z,20.00
2022-10-08T16:26:50.613Z,20.00
2022-10-08T16:29:19.797Z,20.08
2022-10-08T16:31:48.596Z,19.89
2022-10-08T16:34:20.410Z,19.91
2022-10-08T16:36:49.403Z,19.79
2022-10-08T16:39:19.736Z,19.66
2022-10-08T16:41:48.886Z,19.56
2022-10-08T16:44:19.263Z,19.46
2022-10-08T16:46:50.506Z,19.43
2022-10-08T16:49:25.334Z,19.32
2022-10-08T16:51:55.211Z,19.29
2022-10-08T16:54:23.798Z,19.26
2022-10-08T16:56:51.985Z,19.24
2022-10-08T16:59:22.610Z,19.21
2022-10-08T17:01:52.810Z,19.16
2022-10-08T17:04:24.252Z,19.09
2022-10-08T17:06:53.424Z,19.04
2022-10-08T17:09:21.732Z,19.05
2022-10-08T17:11:50.066Z,19.06
2022-10-08T17:14:18.605Z,19.04
2022-10-08T17:16:46.994Z,19.02
2022-10-08T17:19:15.424Z,19.05
2022-10-08T17:21:45.470Z,19.03
2022-10-08T17:24:13.856Z,18.92
2022-10-08T17:26:43.100Z,18.80
2022-10-08T17:29:12.926Z,18.84
2022-10-08T17:31:41.360Z,18.76
2022-10-08T17:34:10.204Z,18.66
2022-10-08T17:36:41.578Z,18.61
2022-10-08T17:39:13.757Z,18.58
2022-10-08T17:41:43.897Z,18.52
2022-10-08T17:44:12.670Z,18.48
2022-10-08T17:46:45.474Z,18.42
2022-10-08T17:49:14.912Z,18.37
2022-10-08T17:51:43.350Z,18.28
2022-10-08T17:54:15.617Z,18.23
2022-10-08T17:56:44.437Z,18.10
2022-10-08T17:59:15.215Z,18.04
2022-10-08T18:01:45.413Z,17.98
2022-10-08T18:04:16.737Z,17.85
2022-10-08T18:06:47.060Z,17.82
2022-10-08T18:09:19.952Z,17.83
2022-10-08T18:11:52.014Z,17.79
2022-10-08T18:14:21.730Z,17.68
2022-10-08T18:16:50.568Z,17.62
2022-10-08T18:19:19.676Z,17.54
2022-10-08T18:21:48.316Z,17.47
2022-10-08T18:24:19.001Z,17.38
2022-10-08T18:26:47.589Z,17.31
2022-10-08T18:29:16.358Z,17.27
2022-10-08T18:31:46.748Z,17.22
2022-10-08T18:34:17.299Z,17.18
2022-10-08T18:36:46.397Z,17.17
2022-10-08T18:39:17.290Z,17.10
2022-10-08T18:41:48.439Z,17.03
2022-10-08T18:44:19.690Z,16.98
2022-10-08T18:46:48.388Z,16.90
2022-10-08T18:49:18.909Z,16.87
2022-10-08T18:51:47.143Z,16.78
2022-10-08T18:54:15.582Z,16.70
2022-10-08T18:56:44.063Z,16.66
2022-10-08T18:59:15.777Z,16.67
2022-10-08T19:01:46.537Z,16.66
2022-10-08T19:04:18.139Z,16.60
2022-10-08T19:06:47.785Z,16.57
2022-10-08T19:09:16.726Z,16.54
2022-10-08T19:11:46.770Z,16.47
2022-10-08T19:14:19.384Z,16.42
2022-10-08T19:16:48.609Z,16.39
2022-10-08T19:19:19.245Z,16.33
2022-10-08T19:21:48.354Z,16.28
2022-10-08T19:24:19.107Z,16.25
2022-10-08T19:26:48.683Z,16.22
2022-10-08T19:29:21.605Z,16.19
2022-10-08T19:31:50.570Z,16.14
2022-10-08T19:34:20.992Z,16.08
2022-10-08T19:36:50.367Z,16.05
2022-10-08T19:39:22.117Z,16.03
2022-10-08T19:41:50.744Z,15.99
2022-10-08T19:44:21.324Z,15.95
2022-10-08T19:46:49.871Z,15.87
2022-10-08T19:49:19.016Z,15.81
2022-10-08T19:51:47.495Z,15.78
2022-10-08T19:54:17.106Z,15.75
2022-10-08T19:56:45.820Z,15.73
2022-10-08T19:59:14.549Z,15.68
2022-10-08T20:01:44.769Z,15.65
2022-10-08T20:04:14.062Z,15.60
2022-10-08T20:06:43.637Z,15.56
2022-10-08T20:09:13.526Z,15.51
2022-10-08T20:11:43.332Z,15.48
2022-10-08T20:14:12.432Z,15.44
2022-10-08T20:16:42.542Z,15.37
2022-10-08T20:19:17.609Z,15.30
2022-10-08T20:21:46.222Z,15.27
2022-10-08T20:24:15.181Z,15.24
2022-10-08T20:26:44.939Z,15.22
2022-10-08T20:29:15.225Z,15.09
2022-10-08T20:31:46.212Z,15.15
2022-10-08T20:34:18.538Z,15.17
2022-10-08T20:36:47.846Z,15.16
2022-10-08T20:39:21.094Z,15.14
2022-10-08T20:41:50.180Z,15.11
2022-10-08T20:44:18.540Z,15.07
2022-10-08T20:46:47.129Z,15.04
2022-10-08T20:49:17.031Z,15.01
2022-10-08T20:51:45.554Z,14.97
2022-10-08T20:54:16.011Z,14.94
2022-10-08T20:56:44.986Z,14.88
2022-10-08T20:59:16.661Z,14.84
2022-10-08T21:01:46.285Z,14.81
2022-10-08T21:04:14.806Z,14.78
2022-10-08T21:06:46.913Z,14.71
2022-10-08T21:09:17.546Z,14.65
2022-10-08T21:11:47.061Z,14.60
2022-10-08T21:14:18.123Z,14.59
2022-10-08T21:16:46.899Z,14.56
2022-10-08T21:19:16.696Z,14.52
2022-10-08T21:21:46.797Z,14.46
2022-10-08T21:24:16.927Z,14.41
2022-10-08T21:26:45.306Z,14.42
2022-10-08T21:29:15.393Z,14.40
2022-10-08T21:31:44.246Z,14.39
2022-10-08T21:34:13.771Z,14.37
2022-10-08T21:36:42.776Z,14.35
2022-10-08T21:39:16.651Z,14.32
2022-10-08T21:41:45.181Z,14.32
2022-10-08T21:44:13.683Z,14.30
2022-10-08T21:46:43.381Z,14.29
2022-10-08T21:49:14.340Z,14.30
2022-10-08T21:51:42.821Z,14.28
2022-10-08T21:54:13.867Z,14.29
2022-10-08T21:56:42.918Z,14.26
2022-10-08T21:59:14.007Z,14.24
2022-10-08T22:01:44.052Z,14.23
2022-10-08T22:04:15.468Z,14.20
2022-10-08T22:06:46.012Z,14.18
2022-10-08T22:09:18.438Z,14.15
2022-10-08T22:11:46.985Z,14.10
2022-10-08T22:14:16.023Z,14.11
2022-10-08T22:16:44.386Z,14.07
2022-10-08T22:19:13.141Z,13.99
2022-10-08T22:21:41.939Z,13.98
2022-10-08T22:24:10.313Z,13.96
2022-10-08T22:26:41.823Z,13.93
2022-10-08T22:29:11.195Z,13.92
2022-10-08T22:31:39.929Z,13.90
2022-10-08T22:34:08.425Z,13.89
2022-10-08T22:36:39.870Z,13.88
2022-10-08T22:39:08.952Z,13.90
2022-10-08T22:41:39.258Z,13.89
2022-10-08T22:44:07.718Z,13.88
2022-10-08T22:46:38.462Z,13.87
2022-10-08T22:49:09.229Z,13.86
2022-10-08T22:51:38.344Z,13.83
2022-10-08T22:54:07.434Z,13.80
2022-10-08T22:56:35.800Z,13.76
2022-10-08T22:59:05.501Z,13.72
2022-10-08T23:01:34.017Z,13.67
2022-10-08T23:04:02.312Z,13.63
2022-10-08T23:06:33.015Z,13.63
2022-10-08T23:09:03.336Z,13.60
2022-10-08T23:11:32.746Z,13.56
2022-10-08T23:14:01.737Z,13.53
2022-10-08T23:16:34.019Z,13.48
2022-10-08T23:19:05.051Z,13.45
2022-10-08T23:21:34.132Z,13.41
2022-10-08T23:24:03.126Z,13.39
2022-10-08T23:26:31.764Z,13.35
2022-10-08T23:29:01.760Z,13.33
2022-10-08T23:31:33.272Z,13.31
2022-10-08T23:34:02.422Z,13.29
2022-10-08T23:36:32.883Z,13.28
2022-10-08T23:39:01.519Z,13.25
2022-10-08T23:41:30.134Z,13.24
2022-10-08T23:43:58.926Z,13.24
2022-10-08T23:46:29.065Z,13.23
2022-10-08T23:49:00.294Z,13.21
2022-10-08T23:51:31.592Z,13.21
2022-10-08T23:54:01.103Z,13.21
2022-10-08T23:56:29.762Z,13.19
2022-10-08T23:58:58.344Z,13.18
